Météo Nord-Pas-de-Calais   La météo au plus près de chez vous

Station météorologique

Observations météo à Le Baril (97417)

97417360 114 m Dernier relevé à 12:36
23.6°C
Humidité 62 % Vent 17.6 km/h

Journée consultée

Jeudi 3 Septembre 2026

Synthèse de la journée

Périodes de référence en UTC

Température maximale

25.3°C

à 11:00

06h 06h

Température minimale

19°C

à 01:12

18h 18h

Rafale maximale

40 km/h

à 11:48

00h 00h

Précipitations

0 mm

Cumul quotidien

06h 06h

Ensoleillement

5h 1 mins

Durée quotidienne

00h 00h

Graphiques de la journée

Heure locale Réduire

Données détaillées

Relevés météo

Pas de 6 minutes Afficher les relevés infra-horaires
Relevés météo détaillés à Le Baril pour le Jeudi 3 Septembre 2026
Heure Température °C Point de rosée °C Humidité % Vent moyen (raf.), km/h Précipitations mm Ensoleillement min Rayonnement global W/m²
12:36 23.6 °C 17.6 °C 69 % 14 km/h (28 km/h) 0 mm0 mm 1 min 150.7 W/m²
12:30 23.9 °C 17.6 °C 68 % 15 km/h (33 km/h) 0 mm0 mm 6 min 285.1 W/m²
12:24 23.8 °C 17.8 °C 69 % 16 km/h (33 km/h) 0 mm0 mm 1 min 150.7 W/m²
12:18 23.9 °C 18.1 °C 70 % 17 km/h (33 km/h) 0 mm0 mm 3 min 205.8 W/m²
12:12 23.9 °C 18.1 °C 70 % 16 km/h (32 km/h) 0 mm0 mm 4 min 231.8 W/m²
12:06 23.5 °C 17.9 °C 71 % 16 km/h (36 km/h) 0 mm0 mm 2 min 141.2 W/m²
12:00 23.6 °C 17.8 °C 70 % 15 km/h (39 km/h) 0 mm0 mm 1 min 141.4 W/m²
11:54 24.2 °C 17.9 °C 68 % 19 km/h (40 km/h) 0 mm0 mm 4 min 250.9 W/m²
11:48 24.6 °C 18.1 °C 67 % 18 km/h (40 km/h) 0 mm0 mm 6 min 315.2 W/m²
11:42 24.8 °C 17 °C 62 % 18 km/h (34 km/h) 0 mm0 mm 6 min 313 W/m²
11:36 24.8 °C 17 °C 62 % 18 km/h (37 km/h) 0 mm0 mm 6 min 312.4 W/m²
11:30 25 °C 16.7 °C 60 % 15 km/h (37 km/h) 0 mm0 mm 6 min 311.4 W/m²
11:24 25.1 °C 17 °C 61 % 15 km/h (29 km/h) 0 mm0 mm 6 min 312.3 W/m²
11:18 24.8 °C 16.2 °C 59 % 18 km/h (35 km/h) 0 mm0 mm 6 min 315.2 W/m²
11:12 25.1 °C 16.8 °C 60 % 16 km/h (35 km/h) 0 mm0 mm 6 min 315.3 W/m²
11:06 25.1 °C 16.5 °C 59 % 15 km/h (27 km/h) 0 mm0 mm 6 min 315.2 W/m²
11:00 25.3 °C 17 °C 60 % 12 km/h (31 km/h) 0 mm0 mm 6 min 316.4 W/m²
10:54 25.2 °C 16.9 °C 60 % 13 km/h (29 km/h) 0 mm0 mm 6 min 320.1 W/m²
10:48 25.1 °C 16.8 °C 60 % 14 km/h (35 km/h) 0 mm0 mm 6 min 325 W/m²
10:42 25 °C 17 °C 61 % 15 km/h (35 km/h) 0 mm0 mm 6 min 321.8 W/m²
10:36 24.7 °C 17.2 °C 63 % 15 km/h (31 km/h) 0 mm0 mm 6 min 322.9 W/m²
10:30 24.9 °C 17.4 °C 63 % 13 km/h (31 km/h) 0 mm0 mm 6 min 322.2 W/m²
10:24 24.8 °C 16.2 °C 59 % 13 km/h (31 km/h) 0 mm0 mm 6 min 321.2 W/m²
10:18 24.9 °C 17.9 °C 65 % 15 km/h (29 km/h) 0 mm0 mm 6 min 325 W/m²
10:12 24.6 °C 17.6 °C 65 % 16 km/h (29 km/h) 0 mm0 mm 6 min 317.8 W/m²
10:06 24.6 °C 17.1 °C 63 % 18 km/h (35 km/h) 0 mm0 mm 6 min 326 W/m²
10:00 24.5 °C 17.2 °C 64 % 18 km/h (35 km/h) 0 mm0 mm 6 min 321.2 W/m²
09:54 24.5 °C 17.2 °C 64 % 15 km/h (32 km/h) 0 mm0 mm 6 min 322.7 W/m²
09:48 24.8 °C 17 °C 62 % 12 km/h (26 km/h) 0 mm0 mm 6 min 330.6 W/m²
09:42 25 °C 17.7 °C 64 % 12 km/h (27 km/h) 0 mm0 mm 6 min 326.5 W/m²
09:36 24.7 °C 17.4 °C 64 % 15 km/h (28 km/h) 0 mm0 mm 6 min 336.6 W/m²
09:30 24.4 °C 17.6 °C 66 % 16 km/h (28 km/h) 0 mm0 mm 6 min 331 W/m²
09:24 24.5 °C 18 °C 67 % 14 km/h (27 km/h) 0 mm0 mm 6 min 346.7 W/m²
09:18 24.6 °C 18.1 °C 67 % 14 km/h (30 km/h) 0 mm0 mm 6 min 345.6 W/m²
09:12 24.4 °C 18.1 °C 68 % 14 km/h (30 km/h) 0 mm0 mm 6 min 290.5 W/m²
09:06 24.3 °C 18.7 °C 71 % 13 km/h (27 km/h) 0 mm0 mm 4 min 276.3 W/m²
09:00 24.6 °C 18.3 °C 68 % 13 km/h (27 km/h) 0 mm0 mm 6 min 300 W/m²
08:54 24.6 °C 16.8 °C 62 % 12 km/h (23 km/h) 0 mm0 mm 6 min 304.9 W/m²
08:48 24.4 °C 17.1 °C 64 % 12 km/h (26 km/h) 0 mm0 mm 6 min 303.1 W/m²
08:42 24 °C 18.2 °C 70 % 14 km/h (29 km/h) 0 mm0 mm 6 min 292 W/m²
08:36 24 °C 17.7 °C 68 % 14 km/h (29 km/h) 0 mm0 mm 6 min 275.2 W/m²
08:30 24 °C 18.4 °C 71 % 14 km/h (29 km/h) 0 mm0 mm 6 min 281.5 W/m²
08:24 23.8 °C 17.5 °C 68 % 14 km/h (29 km/h) 0 mm0 mm 5 min 249.4 W/m²
08:18 23.8 °C 18.2 °C 71 % 12 km/h (28 km/h) 0 mm0 mm 4 min 235 W/m²
08:12 23.8 °C 18.7 °C 73 % 13 km/h (27 km/h) 0 mm0 mm 6 min 272.9 W/m²
08:06 23.8 °C 18.4 °C 72 % 11 km/h (27 km/h) 0 mm0 mm 6 min 256.5 W/m²
08:00 23.7 °C 18.8 °C 74 % 11 km/h (21 km/h) 0 mm0 mm 6 min 267.5 W/m²
07:54 23.6 °C 19.3 °C 77 % 11 km/h (21 km/h) 0 mm0 mm 5 min 242.3 W/m²
07:48 23.3 °C 19 °C 77 % 11 km/h (21 km/h) 0 mm0 mm 4 min 215.4 W/m²
07:42 23.4 °C 18.7 °C 75 % 10 km/h (21 km/h) 0 mm0 mm 6 min 268.5 W/m²
07:36 23.1 °C 18.6 °C 76 % 12 km/h (26 km/h) 0 mm0 mm 4 min 178.8 W/m²
07:30 23.1 °C 18.8 °C 77 % 12 km/h (25 km/h) 0 mm0 mm 4 min 192.9 W/m²
07:24 22.9 °C 18.7 °C 77 % 12 km/h (25 km/h) 0 mm0 mm 6 min 213.8 W/m²
07:18 22.4 °C 18.8 °C 80 % 11 km/h (25 km/h) 0 mm0 mm 0 min 83.4 W/m²
07:12 22.7 °C 18.9 °C 79 % 10 km/h (25 km/h) 0 mm0 mm 2 min 143.5 W/m²
07:06 22.7 °C 19.7 °C 83 % 8 km/h (21 km/h) 0 mm0 mm 6 min 237.9 W/m²
07:00 21.8 °C 19.5 °C 87 % 10 km/h (17 km/h) 0 mm0.8 mm 2 min 132.2 W/m²
06:54 21.5 °C 19.1 °C 86 % 11 km/h (20 km/h) 0.2 mm0 mm 1 min 118.4 W/m²
06:48 21.7 °C 18.5 °C 82 % 8 km/h (17 km/h) 0.6 mm0 mm 0 min 37.2 W/m²
06:42 21.9 °C 18.3 °C 80 % 8 km/h (20 km/h) 0 mm0 mm 0 min 36.8 W/m²
06:36 22.1 °C 18.3 °C 79 % 10 km/h (20 km/h) 0 mm0 mm 0 min 48 W/m²
06:30 21.8 °C 18.6 °C 82 % 9 km/h (17 km/h) 0 mm0 mm 3 min 122.8 W/m²
06:24 21.3 °C 18.1 °C 82 % 10 km/h (16 km/h) 0 mm0 mm 0 min 40.6 W/m²
06:18 21.4 °C 18.2 °C 82 % 10 km/h (21 km/h) 0 mm0 mm 0 min 44.5 W/m²
06:12 21.2 °C 18 °C 82 % 13 km/h (24 km/h) 0 mm0 mm 3 min 82.1 W/m²
06:06 21 °C 17.8 °C 82 % 12 km/h (22 km/h) 0 mm0 mm 0 min 42.2 W/m²
06:00 20.9 °C 17.5 °C 81 % 12 km/h (21 km/h) 0 mm0 mm 0 min 26.4 W/m²
05:54 20.8 °C 18 °C 84 % 12 km/h (22 km/h) 0 mm0 mm 0 min 21.4 W/m²
05:48 20.8 °C 17.8 °C 83 % 12 km/h (21 km/h) 0 mm0 mm 0 min 25.7 W/m²
05:42 20.8 °C 18 °C 84 % 11 km/h (19 km/h) 0 mm0 mm 0 min 36.2 W/m²
05:36 20.6 °C 17.8 °C 84 % 12 km/h (21 km/h) 0 mm0 mm 0 min 21.8 W/m²
05:30 20.5 °C 17.9 °C 85 % 11 km/h (21 km/h) 0 mm0 mm 0 min 18.8 W/m²
05:24 20.5 °C 17.7 °C 84 % 10 km/h (22 km/h) 0 mm0 mm 0 min 13.8 W/m²
05:18 20.5 °C 17.7 °C 84 % 12 km/h (22 km/h) 0 mm0 mm 0 min 15.6 W/m²
05:12 20.5 °C 17.9 °C 85 % 12 km/h (21 km/h) 0 mm0 mm 0 min 19.6 W/m²
05:06 20.5 °C 17.9 °C 85 % 12 km/h (22 km/h) 0 mm0 mm 0 min 18.2 W/m²
05:00 20.4 °C 17.8 °C 85 % 11 km/h (21 km/h) 0 mm0 mm 0 min 15.4 W/m²
04:54 20.4 °C 17.8 °C 85 % 12 km/h (21 km/h) 0 mm0 mm 0 min 11.6 W/m²
04:48 20.3 °C 17.5 °C 84 % 12 km/h (22 km/h) 0 mm0 mm 3 min 9.4 W/m²
04:42 20.2 °C 17.6 °C 85 % 12 km/h (19 km/h) 0 mm0 mm 1 min 7.7 W/m²
04:36 20.2 °C 17.6 °C 85 % 12 km/h (21 km/h) 0 mm0 mm 0 min 3.7 W/m²
04:30 20.1 °C 17.7 °C 86 % 11 km/h (20 km/h) 0 mm0 mm 0 min 0 W/m²
04:24 20.1 °C 17.7 °C 86 % 11 km/h (21 km/h) 0 mm0 mm 0 min 0 W/m²
04:18 20.2 °C 17.8 °C 86 % 12 km/h (21 km/h) 0 mm0 mm 0 min 0 W/m²
04:12 20.2 °C 17.8 °C 86 % 12 km/h (20 km/h) 0 mm0 mm 0 min 0 W/m²
04:06 20.2 °C 18.1 °C 88 % 11 km/h (19 km/h) 0 mm0 mm 0 min 0 W/m²
04:00 20.2 °C 18.1 °C 88 % 10 km/h (20 km/h) 0 mm0.4 mm 0 min 0 W/m²
03:54 20.2 °C 18.3 °C 89 % 9 km/h (15 km/h) 0 mm0 mm 0 min 0 W/m²
03:48 20.2 °C 18.5 °C 90 % 8 km/h (18 km/h) 0 mm0 mm 0 min 0 W/m²
03:42 20.3 °C 18.4 °C 89 % 8 km/h (18 km/h) 0 mm0 mm 0 min 0 W/m²
03:36 20.3 °C 18.4 °C 89 % 8 km/h (18 km/h) 0 mm0 mm 0 min 0 W/m²
03:30 20.2 °C 18.5 °C 90 % 8 km/h (19 km/h) 0 mm0 mm 0 min 0 W/m²
03:24 20.2 °C 18.7 °C 91 % 10 km/h (20 km/h) 0 mm0 mm 0 min 0 W/m²
03:18 20.2 °C 18.7 °C 91 % 12 km/h (21 km/h) 0.2 mm0 mm 0 min 0 W/m²
03:12 20.2 °C 18.5 °C 90 % 11 km/h (21 km/h) 0.2 mm0 mm 0 min 0 W/m²
03:06 20.2 °C 18.7 °C 91 % 9 km/h (18 km/h) 0 mm0 mm 0 min 0 W/m²
03:00 20.2 °C 18.7 °C 91 % 10 km/h (26 km/h) 0 mm3.4 mm 0 min 0 W/m²
02:54 20.1 °C 18.6 °C 91 % 11 km/h (26 km/h) 0 mm0 mm 0 min 0 W/m²
02:48 20 °C 18.3 °C 90 % 11 km/h (23 km/h) 0 mm0 mm 0 min 0 W/m²
02:42 20.1 °C 18.4 °C 90 % 11 km/h (23 km/h) 1 mm0 mm 0 min 0 W/m²
02:36 20 °C 18.5 °C 91 % 8 km/h (18 km/h) 0.4 mm0 mm 0 min 0 W/m²
02:30 20 °C 18.3 °C 90 % 12 km/h (30 km/h) 0 mm0 mm 0 min 0 W/m²
02:24 19.7 °C 18.2 °C 91 % 15 km/h (30 km/h) 0.2 mm0 mm 0 min 0 W/m²
02:18 19.7 °C 18.2 °C 91 % 14 km/h (27 km/h) 0.8 mm0 mm 0 min 0 W/m²
02:12 20 °C 18.5 °C 91 % 11 km/h (20 km/h) 0.8 mm0 mm 0 min 0 W/m²
02:06 20 °C 18.3 °C 90 % 13 km/h (23 km/h) 0.2 mm0 mm 0 min 0 W/m²
02:00 19.9 °C 18.2 °C 90 % 13 km/h (21 km/h) 0.2 mm2 mm 0 min 0 W/m²
01:54 19.8 °C 17.9 °C 89 % 13 km/h (22 km/h) 0 mm0 mm 0 min 0 W/m²
01:48 19.7 °C 17.7 °C 88 % 13 km/h (22 km/h) 0 mm0 mm 0 min 0 W/m²
01:42 19.7 °C 17.5 °C 87 % 10 km/h (18 km/h) 0 mm0 mm 0 min 0 W/m²
01:36 19.8 °C 17.6 °C 87 % 11 km/h (19 km/h) 0 mm0 mm 0 min 0 W/m²
01:30 19.7 °C 17.3 °C 86 % 13 km/h (30 km/h) 0 mm0 mm 0 min 0 W/m²
01:24 19.4 °C 17 °C 86 % 12 km/h (30 km/h) 0.2 mm0 mm 0 min 0 W/m²
01:18 19.1 °C 16.7 °C 86 % 12 km/h (21 km/h) 0.2 mm0 mm 0 min 0 W/m²
01:12 19 °C 16.4 °C 85 % 16 km/h (36 km/h) 1 mm0 mm 0 min 0 W/m²
01:06 19.2 °C 16.8 °C 86 % 18 km/h (36 km/h) 0.4 mm0 mm 0 min 0 W/m²
01:00 19.5 °C 17.6 °C 89 % 15 km/h (30 km/h) 0.6 mm1 mm 0 min 0 W/m²
00:54 19.4 °C 17.7 °C 90 % 12 km/h (19 km/h) 0 mm0 mm 0 min 0 W/m²
00:48 19.2 °C 17.3 °C 89 % 10 km/h (19 km/h) 0 mm0 mm 0 min 0 W/m²
00:42 19.1 °C 17.1 °C 88 % 9 km/h (18 km/h) 0 mm0 mm 0 min 0 W/m²
00:36 19.1 °C 17.1 °C 88 % 8 km/h (17 km/h) 0 mm0 mm 0 min 0 W/m²
00:30 19.3 °C 17.3 °C 88 % 10 km/h (26 km/h) 0.2 mm0 mm 0 min 0 W/m²
00:24 19.5 °C 16.9 °C 85 % 13 km/h (26 km/h) 0.2 mm0 mm 0 min 0 W/m²
00:18 19.4 °C 16.8 °C 85 % 15 km/h (32 km/h) 0 mm0 mm 0 min 0 W/m²
00:12 19.5 °C 17.3 °C 87 % 18 km/h (32 km/h) 0 mm0 mm 0 min 0 W/m²
00:06 19.5 °C 17.3 °C 87 % 16 km/h (31 km/h) 0 mm0 mm 0 min 0 W/m²
00:00 19.5 °C 17.6 °C 89 % 13 km/h (28 km/h) 0.4 mm3.6 mm 0 min 0 W/m²

Données via Météo-France

Relevés météo à Le Baril

Cette page rassemble les observations de la station de Le Baril : température, humidité, vent, précipitations et pression atmosphérique. Les graphiques facilitent le suivi de la journée, tandis que le tableau donne accès aux mesures horaires et infra-horaires disponibles.

Pour replacer ces mesures dans leur contexte, consultez la climatologie de Le Baril ainsi que ses normales et records. Retrouvez aussi la carte des observations météo en temps réel.